createdAt,value
2019-03-21T00:00:49.680Z,71.84
2019-03-21T00:01:48.704Z,72.03
2019-03-21T00:02:48.442Z,72.03
2019-03-21T00:03:48.417Z,71.94
2019-03-21T00:04:48.449Z,72.03
2019-03-21T00:05:48.544Z,71.65
2019-03-21T00:06:48.521Z,71.65
2019-03-21T00:07:48.546Z,71.75
2019-03-21T00:08:48.922Z,71.75
2019-03-21T00:10:48.683Z,72.03
2019-03-21T00:11:48.663Z,71.75
2019-03-21T00:12:48.694Z,72.03
2019-03-21T00:13:48.779Z,72.03
2019-03-21T00:14:48.753Z,72.03
2019-03-21T00:15:49.090Z,72.03
2019-03-21T00:16:48.864Z,72.03
2019-03-21T00:17:48.857Z,72.03
2019-03-21T00:18:48.875Z,72.03
2019-03-21T00:19:48.912Z,72.13
2019-03-21T00:20:48.996Z,72.03
2019-03-21T00:21:49.027Z,72.03
2019-03-21T00:22:49.308Z,72.13
2019-03-21T00:23:49.043Z,72.13
2019-03-21T00:24:49.069Z,72.03
2019-03-21T00:25:49.102Z,72.03
2019-03-21T00:26:49.176Z,72.13
2019-03-21T00:27:49.161Z,72.03
2019-03-21T00:28:49.253Z,72.13
2019-03-21T00:29:49.535Z,72.03
2019-03-21T00:30:49.255Z,72.03
2019-03-21T00:31:49.330Z,72.03
2019-03-21T00:32:49.365Z,72.13
2019-03-21T00:33:49.359Z,72.03
2019-03-21T00:34:49.438Z,72.13
2019-03-21T00:35:49.420Z,72.03
2019-03-21T00:36:49.744Z,72.13
2019-03-21T00:37:49.480Z,72.03
2019-03-21T00:38:49.497Z,72.03
2019-03-21T00:40:49.613Z,72.23
2019-03-21T00:41:49.652Z,72.13
2019-03-21T00:42:49.625Z,72.13
2019-03-21T00:43:49.954Z,72.13
2019-03-21T00:44:49.733Z,72.13
2019-03-21T00:45:49.717Z,72.03
2019-03-21T00:46:49.797Z,72.13
2019-03-21T00:47:49.773Z,72.13
2019-03-21T00:48:49.806Z,72.13
2019-03-21T00:49:49.851Z,72.23
2019-03-21T00:50:50.227Z,72.13
2019-03-21T00:51:49.909Z,72.13
2019-03-21T00:52:49.982Z,72.13
2019-03-21T00:53:49.968Z,72.23
2019-03-21T00:54:49.994Z,72.03
2019-03-21T00:55:50.079Z,72.13
2019-03-21T00:56:50.106Z,72.13
2019-03-21T00:57:50.389Z,72.03
2019-03-21T00:58:50.116Z,72.03
2019-03-21T00:59:50.151Z,72.03
2019-03-21T01:00:50.224Z,72.03
2019-03-21T01:01:50.259Z,71.94
2019-03-21T01:02:50.249Z,72.03
2019-03-21T01:03:50.268Z,72.03
2019-03-21T01:04:50.600Z,71.65
2019-03-21T01:05:50.339Z,72.03
2019-03-21T01:06:50.411Z,71.94
2019-03-21T01:07:50.440Z,72.00
2019-03-21T01:08:50.428Z,71.94
2019-03-21T01:09:50.506Z,72.13
2019-03-21T01:10:50.496Z,72.09
2019-03-21T01:11:50.825Z,72.13
2019-03-21T01:12:50.602Z,72.03
2019-03-21T01:13:50.580Z,72.03
2019-03-21T01:14:50.666Z,71.94
2019-03-21T01:15:50.655Z,72.13
2019-03-21T01:16:50.724Z,72.00
2019-03-21T01:18:50.785Z,72.00
2019-03-21T01:19:51.093Z,71.94
2019-03-21T01:20:50.844Z,71.84
2019-03-21T01:21:50.835Z,71.84
2019-03-21T01:22:50.853Z,72.03
2019-03-21T01:23:50.954Z,71.71
2019-03-21T01:24:50.920Z,71.55
2019-03-21T01:25:50.948Z,71.52
2019-03-21T01:26:51.314Z,71.75
2019-03-21T01:27:51.007Z,71.94
2019-03-21T01:28:51.094Z,71.84
2019-03-21T01:29:51.123Z,71.75
2019-03-21T01:30:51.103Z,71.55
2019-03-21T01:31:51.133Z,71.52
2019-03-21T01:32:51.219Z,71.55
2019-03-21T01:33:51.564Z,71.55
2019-03-21T01:34:51.272Z,71.52
2019-03-21T01:35:51.267Z,71.55
2019-03-21T01:36:51.340Z,71.52
2019-03-21T01:37:51.370Z,71.55
2019-03-21T01:38:51.356Z,71.52
2019-03-21T01:39:51.434Z,71.61
2019-03-21T01:40:51.711Z,71.52
2019-03-21T01:41:51.492Z,71.61
2019-03-21T01:42:51.485Z,71.52
2019-03-21T01:43:51.512Z,71.52
2019-03-21T01:44:51.599Z,71.55
2019-03-21T01:45:51.571Z,71.52
2019-03-21T01:46:51.646Z,71.52
2019-03-21T01:47:51.922Z,71.52
2019-03-21T01:48:51.711Z,71.61
2019-03-21T01:49:51.742Z,71.61
2019-03-21T01:50:51.765Z,71.52
2019-03-21T01:51:51.753Z,71.55
2019-03-21T01:52:51.932Z,71.61
2019-03-21T01:53:51.824Z,71.52
2019-03-21T01:54:52.140Z,71.61
2019-03-21T01:55:51.877Z,71.52
2019-03-21T01:56:51.954Z,71.52
2019-03-21T01:57:51.936Z,71.52
2019-03-21T01:58:51.968Z,71.61
2019-03-21T01:59:52.044Z,71.52
2019-03-21T02:00:52.324Z,71.52
2019-03-21T02:01:52.057Z,71.61
2019-03-21T02:02:52.142Z,71.81
2019-03-21T02:03:52.177Z,71.42
2019-03-21T02:05:52.189Z,71.81
2019-03-21T02:06:52.507Z,71.52
2019-03-21T02:07:52.294Z,71.61
2019-03-21T02:08:52.327Z,71.91
2019-03-21T02:09:52.354Z,71.52
2019-03-21T02:10:52.387Z,71.81
2019-03-21T02:11:52.365Z,72.09
2019-03-21T02:12:52.699Z,71.81
2019-03-21T02:13:52.475Z,71.52
2019-03-21T02:14:52.627Z,72.00
2019-03-21T02:15:52.536Z,72.19
2019-03-21T02:16:52.572Z,71.91
2019-03-21T02:17:52.560Z,71.91
2019-03-21T02:18:52.645Z,71.91
2019-03-21T02:19:52.907Z,71.81
2019-03-21T02:20:52.645Z,71.81
2019-03-21T02:21:52.673Z,71.71
2019-03-21T02:22:52.701Z,71.91
2019-03-21T02:23:52.776Z,71.61
2019-03-21T02:24:52.846Z,71.91
2019-03-21T02:25:52.846Z,71.91
2019-03-21T02:26:53.174Z,71.91
2019-03-21T02:27:52.856Z,71.81
2019-03-21T02:28:52.885Z,71.91
2019-03-21T02:30:52.946Z,71.61
2019-03-21T02:31:53.031Z,71.52
2019-03-21T02:32:53.068Z,71.61
2019-03-21T02:33:53.352Z,71.52
2019-03-21T02:34:53.077Z,71.52
2019-03-21T02:35:53.122Z,71.61
2019-03-21T02:36:53.188Z,71.61
2019-03-21T02:37:53.213Z,71.61
2019-03-21T02:38:53.243Z,71.52
2019-03-21T02:39:59.297Z,71.52
2019-03-21T02:40:53.261Z,71.61
2019-03-21T02:41:53.288Z,71.52
2019-03-21T02:42:53.368Z,71.52
2019-03-21T02:43:53.397Z,71.33
2019-03-21T02:45:07.796Z,71.52
2019-03-21T02:45:53.402Z,71.52
2019-03-21T02:46:53.782Z,71.71
2019-03-21T02:47:53.471Z,71.52
2019-03-21T02:48:53.506Z,71.52
2019-03-21T02:49:53.619Z,71.42
2019-03-21T02:50:53.562Z,71.52
2019-03-21T02:51:53.637Z,71.52
2019-03-21T02:52:53.680Z,71.52
2019-03-21T02:53:54.009Z,71.61
2019-03-21T02:54:53.692Z,71.52
2019-03-21T02:57:53.823Z,71.42
2019-03-21T03:00:53.919Z,71.52
2019-03-21T03:01:54.249Z,71.52
2019-03-21T03:03:54.015Z,71.42
2019-03-21T03:04:54.061Z,71.61
2019-03-21T03:05:54.020Z,71.42
2019-03-21T03:08:54.165Z,71.42
2019-03-21T03:13:54.612Z,71.61
2019-03-21T03:14:54.289Z,71.52
2019-03-21T03:15:54.323Z,71.61
2019-03-21T03:16:54.414Z,71.61
2019-03-21T03:17:54.384Z,71.52
2019-03-21T03:18:54.488Z,71.61
2019-03-21T03:19:54.755Z,71.52
2019-03-21T03:20:54.550Z,71.52
2019-03-21T03:21:54.553Z,71.52
2019-03-21T03:22:54.537Z,71.52
2019-03-21T03:23:54.572Z,71.52
2019-03-21T03:24:54.656Z,71.52
2019-03-21T03:25:54.927Z,71.42
2019-03-21T03:27:54.695Z,71.91
2019-03-21T03:28:54.774Z,71.71
2019-03-21T03:29:54.753Z,71.71
2019-03-21T03:30:54.837Z,71.52
2019-03-21T03:31:54.875Z,71.81
2019-03-21T03:32:55.216Z,71.87
2019-03-21T03:33:54.873Z,71.52
2019-03-21T03:34:54.904Z,71.71
2019-03-21T03:35:54.937Z,71.52
2019-03-21T03:36:54.965Z,71.67
2019-03-21T03:37:55.049Z,71.61
2019-03-21T03:38:55.072Z,72.00
2019-03-21T03:39:55.361Z,71.81
2019-03-21T03:40:55.136Z,71.96
2019-03-21T03:41:55.171Z,71.96
2019-03-21T03:42:55.144Z,71.81
2019-03-21T03:43:55.202Z,71.77
2019-03-21T03:44:55.265Z,71.81
2019-03-21T03:45:55.289Z,71.52
2019-03-21T03:46:55.573Z,71.91
2019-03-21T03:47:55.313Z,71.87
2019-03-21T03:48:55.385Z,71.67
2019-03-21T03:49:55.412Z,71.67
2019-03-21T03:50:55.392Z,71.87
2019-03-21T03:51:55.477Z,71.67
2019-03-21T03:52:55.450Z,71.67
2019-03-21T03:53:55.787Z,71.87
2019-03-21T03:54:55.512Z,71.87
2019-03-21T03:55:55.607Z,71.58
2019-03-21T03:57:55.615Z,71.48
2019-03-21T03:58:55.640Z,71.77
2019-03-21T03:59:55.663Z,72.06
2019-03-21T04:00:56.059Z,71.96
2019-03-21T04:01:55.778Z,71.81
2019-03-21T04:02:55.761Z,71.61
2019-03-21T04:03:55.846Z,71.91
2019-03-21T04:04:55.886Z,71.81
2019-03-21T04:05:55.855Z,71.87
2019-03-21T04:06:55.879Z,71.96
2019-03-21T04:07:56.274Z,72.06
2019-03-21T04:08:55.945Z,71.96
2019-03-21T04:09:56.044Z,72.06
2019-03-21T04:10:56.000Z,72.06
2019-03-21T04:11:56.038Z,72.06
2019-03-21T04:12:56.061Z,71.96
2019-03-21T04:13:56.146Z,71.96
2019-03-21T04:14:56.423Z,71.87
2019-03-21T04:15:56.157Z,71.77
2019-03-21T04:16:56.233Z,71.96
2019-03-21T04:17:56.216Z,71.96
2019-03-21T04:18:56.300Z,72.06
2019-03-21T04:19:56.272Z,72.06
2019-03-21T04:20:56.363Z,71.96
2019-03-21T04:21:56.683Z,72.06
2019-03-21T04:22:56.375Z,71.87
2019-03-21T04:23:59.489Z,72.06
2019-03-21T04:24:56.476Z,71.96
2019-03-21T04:25:56.505Z,72.06
2019-03-21T04:26:56.489Z,72.34
2019-03-21T04:27:56.566Z,71.96
2019-03-21T04:28:56.903Z,71.96
2019-03-21T04:29:56.580Z,71.96
2019-03-21T04:30:56.607Z,71.87
2019-03-21T04:31:56.690Z,71.96
2019-03-21T04:32:56.671Z,71.87
2019-03-21T04:33:56.711Z,71.96
2019-03-21T04:35:56.770Z,71.87
2019-03-21T04:37:57.176Z,71.96
2019-03-21T04:39:56.933Z,72.06
2019-03-21T04:40:56.964Z,72.06
2019-03-21T04:41:56.994Z,72.06
2019-03-21T04:42:56.972Z,71.87
2019-03-21T04:43:57.001Z,72.06
2019-03-21T04:44:57.389Z,72.06
2019-03-21T04:46:03.259Z,71.96
2019-03-21T04:46:57.105Z,71.96
2019-03-21T04:47:57.177Z,71.96
2019-03-21T04:48:57.307Z,71.96
2019-03-21T04:49:57.236Z,71.67
2019-03-21T04:50:57.220Z,71.58
2019-03-21T04:51:57.548Z,71.96
2019-03-21T04:53:57.358Z,71.96
2019-03-21T04:54:57.348Z,72.06
2019-03-21T04:55:57.414Z,72.06
2019-03-21T04:56:57.453Z,72.06
2019-03-21T04:58:57.814Z,72.06
2019-03-21T04:59:57.545Z,71.87
2019-03-21T05:00:57.672Z,72.06
2019-03-21T05:01:57.597Z,71.96
2019-03-21T05:02:57.593Z,72.06
2019-03-21T05:03:57.614Z,71.96
2019-03-21T05:04:57.637Z,71.96
2019-03-21T05:05:58.036Z,71.96
2019-03-21T05:06:57.707Z,72.06
2019-03-21T05:07:58.092Z,72.06
2019-03-21T05:08:58.127Z,72.16
2019-03-21T05:09:57.792Z,71.96
2019-03-21T05:10:57.870Z,71.96
2019-03-21T05:11:57.892Z,71.96
2019-03-21T05:12:58.238Z,72.06
2019-03-21T05:13:57.910Z,71.96
2019-03-21T05:15:58.021Z,71.96
2019-03-21T05:16:58.059Z,71.87
2019-03-21T05:17:58.089Z,71.87
2019-03-21T05:18:58.076Z,71.77
2019-03-21T05:19:58.444Z,71.58
2019-03-21T05:20:58.177Z,71.87
2019-03-21T05:21:58.162Z,71.87
2019-03-21T05:22:58.188Z,72.06
2019-03-21T05:23:58.275Z,71.96
2019-03-21T05:24:58.300Z,72.06
2019-03-21T05:25:58.279Z,72.06
2019-03-21T05:26:58.604Z,71.87
2019-03-21T05:27:58.342Z,72.06
2019-03-21T05:28:58.442Z,71.96
2019-03-21T05:29:58.447Z,72.06
2019-03-21T05:30:58.435Z,71.96
2019-03-21T05:31:58.614Z,71.96
2019-03-21T05:32:58.547Z,71.96
2019-03-21T05:33:58.825Z,71.96
2019-03-21T05:34:58.630Z,71.96
2019-03-21T05:35:58.585Z,72.16
2019-03-21T05:36:58.704Z,71.87
2019-03-21T05:37:58.647Z,71.96
2019-03-21T05:38:58.678Z,72.16
2019-03-21T05:39:58.757Z,72.16
2019-03-21T05:40:59.032Z,71.87
2019-03-21T05:41:58.759Z,72.16
2019-03-21T05:42:58.805Z,72.06
2019-03-21T05:43:58.878Z,71.96
2019-03-21T05:44:58.929Z,72.25
2019-03-21T05:45:58.888Z,71.96
2019-03-21T05:46:58.965Z,72.16
2019-03-21T05:47:59.292Z,72.06
2019-03-21T05:48:59.028Z,72.06
2019-03-21T05:49:59.050Z,71.87
2019-03-21T05:50:59.032Z,72.16
2019-03-21T05:51:59.070Z,71.96
2019-03-21T05:52:59.442Z,71.96
2019-03-21T05:53:59.172Z,71.96
2019-03-21T05:54:59.158Z,72.25
2019-03-21T05:55:59.239Z,71.87
2019-03-21T05:56:59.571Z,72.06
2019-03-21T05:57:59.257Z,72.25
2019-03-21T05:59:00.028Z,72.06
2019-03-21T05:59:59.363Z,72.06
2019-03-21T06:00:59.635Z,72.16
2019-03-21T06:01:59.519Z,71.87
2019-03-21T06:02:59.451Z,72.25
2019-03-21T06:03:59.478Z,71.96
2019-03-21T06:04:59.509Z,71.96
2019-03-21T06:05:59.483Z,71.96
2019-03-21T06:06:59.974Z,72.06
2019-03-21T06:07:59.543Z,71.77
2019-03-21T06:08:59.575Z,71.96
2019-03-21T06:09:59.603Z,72.16
2019-03-21T06:10:59.743Z,72.06
2019-03-21T06:12:00.022Z,71.96
2019-03-21T06:13:00.052Z,71.96
2019-03-21T06:13:59.783Z,72.06
2019-03-21T06:14:59.808Z,72.06
2019-03-21T06:15:59.793Z,71.87
2019-03-21T06:16:59.871Z,72.06
2019-03-21T06:17:59.852Z,72.06
2019-03-21T06:18:59.890Z,71.96
2019-03-21T06:19:59.964Z,71.96
2019-03-21T06:21:01.552Z,71.96
2019-03-21T06:21:59.977Z,71.96
2019-03-21T06:23:00.006Z,71.96
2019-03-21T06:24:00.041Z,72.06
2019-03-21T06:25:00.119Z,72.06
2019-03-21T06:26:00.396Z,71.96
2019-03-21T06:27:00.176Z,71.96
2019-03-21T06:28:00.207Z,72.06
2019-03-21T06:29:00.233Z,71.96
2019-03-21T06:30:00.435Z,71.87
2019-03-21T06:31:00.243Z,71.87
2019-03-21T06:32:00.333Z,71.96
2019-03-21T06:33:00.772Z,71.58
2019-03-21T06:34:00.337Z,71.67
2019-03-21T06:35:00.383Z,71.67
2019-03-21T06:36:00.456Z,71.87
2019-03-21T06:37:00.435Z,71.67
2019-03-21T06:38:00.537Z,71.77
2019-03-21T06:39:00.495Z,71.48
2019-03-21T06:40:00.816Z,71.48
2019-03-21T06:41:00.600Z,71.48
2019-03-21T06:42:00.945Z,71.48
2019-03-21T06:43:00.664Z,71.48
2019-03-21T06:44:00.693Z,71.39
2019-03-21T06:45:00.722Z,71.58
2019-03-21T06:46:00.705Z,71.48
2019-03-21T06:47:01.035Z,71.58
2019-03-21T06:48:00.771Z,71.39
2019-03-21T06:49:00.847Z,71.58
2019-03-21T06:50:00.874Z,71.48
2019-03-21T06:51:00.864Z,71.48
2019-03-21T06:52:00.933Z,71.58
2019-03-21T06:53:03.222Z,71.48
2019-03-21T06:54:01.244Z,71.39
2019-03-21T06:55:00.974Z,71.29
2019-03-21T06:56:01.001Z,71.58
2019-03-21T06:57:02.552Z,71.58
2019-03-21T06:58:01.116Z,71.67
2019-03-21T06:59:01.144Z,71.77
2019-03-21T07:00:01.124Z,71.77
2019-03-21T07:01:01.503Z,71.58
2019-03-21T07:02:01.193Z,72.06
2019-03-21T07:03:01.263Z,71.77
2019-03-21T07:04:06.992Z,71.87
2019-03-21T07:05:01.332Z,71.48
2019-03-21T07:06:01.302Z,71.48
2019-03-21T07:07:08.050Z,71.48
2019-03-21T07:08:01.718Z,71.39
2019-03-21T07:09:01.443Z,71.48
2019-03-21T07:10:01.422Z,71.39
2019-03-21T07:11:01.457Z,71.48
2019-03-21T07:12:01.491Z,71.39
2019-03-21T07:13:01.581Z,71.19
2019-03-21T07:14:01.611Z,71.10
2019-03-21T07:15:04.394Z,71.29
2019-03-21T07:16:01.605Z,71.77
2019-03-21T07:17:01.704Z,71.48
2019-03-21T07:18:01.717Z,71.39
2019-03-21T07:19:01.705Z,71.58
2019-03-21T07:20:01.795Z,71.87
2019-03-21T07:21:01.818Z,71.39
2019-03-21T07:22:01.790Z,71.48
2019-03-21T07:23:01.880Z,71.29
2019-03-21T07:24:01.855Z,71.00
2019-03-21T07:25:01.945Z,71.29
2019-03-21T07:26:01.921Z,71.29
2019-03-21T07:27:01.946Z,71.19
2019-03-21T07:28:02.272Z,71.29
2019-03-21T07:29:02.066Z,71.29
2019-03-21T07:30:02.039Z,71.39
2019-03-21T07:31:02.063Z,71.58
2019-03-21T07:32:02.096Z,71.58
2019-03-21T07:33:02.179Z,71.48
2019-03-21T07:34:02.456Z,71.19
2019-03-21T07:36:02.384Z,71.23
2019-03-21T07:37:02.301Z,71.48
2019-03-21T07:38:02.339Z,71.14
2019-03-21T07:39:02.362Z,71.10
2019-03-21T07:40:02.666Z,70.90
2019-03-21T07:41:02.371Z,71.00
2019-03-21T07:42:02.454Z,71.23
2019-03-21T07:43:02.434Z,70.52
2019-03-21T07:44:02.517Z,70.62
2019-03-21T07:45:02.543Z,70.84
2019-03-21T07:46:02.574Z,70.81
2019-03-21T07:47:12.104Z,70.94
2019-03-21T07:48:05.072Z,70.94
2019-03-21T07:49:02.665Z,70.37
2019-03-21T07:50:02.654Z,70.27
2019-03-21T07:51:02.731Z,70.17
2019-03-21T07:52:02.704Z,70.52
2019-03-21T07:53:03.045Z,70.37
2019-03-21T07:54:02.829Z,70.37
2019-03-21T07:55:02.804Z,70.17
2019-03-21T07:56:02.886Z,70.46
2019-03-21T07:57:02.913Z,70.56
2019-03-21T07:58:02.896Z,70.65
2019-03-21T07:59:02.975Z,70.46
2019-03-21T08:00:03.055Z,70.37
2019-03-21T08:01:03.226Z,70.27
2019-03-21T08:02:03.059Z,70.56
2019-03-21T08:03:03.089Z,69.79
2019-03-21T08:04:03.341Z,70.17
2019-03-21T08:05:03.102Z,70.17
2019-03-21T08:06:03.431Z,70.07
2019-03-21T08:07:03.174Z,70.07
2019-03-21T08:08:03.244Z,70.07
2019-03-21T08:09:03.225Z,70.07
2019-03-21T08:10:03.404Z,70.27
2019-03-21T08:11:03.333Z,69.98
2019-03-21T08:12:03.317Z,69.89
2019-03-21T08:13:03.652Z,69.98
2019-03-21T08:14:03.475Z,69.69
2019-03-21T08:15:03.412Z,69.98
2019-03-21T08:16:03.439Z,69.79
2019-03-21T08:17:03.531Z,69.69
2019-03-21T08:18:03.502Z,69.79
2019-03-21T08:19:03.584Z,69.79
2019-03-21T08:20:03.871Z,69.98
2019-03-21T08:21:03.667Z,69.98
2019-03-21T08:22:03.676Z,69.89
2019-03-21T08:23:03.665Z,69.79
2019-03-21T08:24:03.740Z,69.69
2019-03-21T08:25:03.763Z,69.98
2019-03-21T08:26:04.046Z,69.50
2019-03-21T08:27:03.783Z,69.31
2019-03-21T08:28:03.812Z,69.31
2019-03-21T08:29:03.892Z,69.12
2019-03-21T08:30:03.925Z,69.02
2019-03-21T08:31:04.004Z,69.12
2019-03-21T08:32:03.935Z,69.02
2019-03-21T08:33:04.017Z,69.12
2019-03-21T08:34:03.998Z,69.31
2019-03-21T08:35:04.081Z,69.21
2019-03-21T08:36:04.054Z,69.50
2019-03-21T08:38:04.172Z,69.31
2019-03-21T08:39:04.149Z,69.12
2019-03-21T08:40:04.176Z,69.24
2019-03-21T08:41:04.263Z,69.02
2019-03-21T08:42:04.234Z,69.50
2019-03-21T08:43:04.317Z,69.40
2019-03-21T08:44:04.352Z,69.12
2019-03-21T08:45:04.635Z,69.02
2019-03-21T08:46:04.365Z,69.12
2019-03-21T08:47:04.395Z,69.12
2019-03-21T08:48:04.426Z,69.12
2019-03-21T08:49:04.504Z,69.12
2019-03-21T08:50:04.541Z,69.15
2019-03-21T08:51:08.702Z,68.73
2019-03-21T08:52:04.848Z,68.73
2019-03-21T08:53:04.635Z,68.38
2019-03-21T08:54:04.665Z,68.96
2019-03-21T08:56:04.828Z,68.76
2019-03-21T08:57:04.752Z,68.96
2019-03-21T08:58:04.779Z,69.15
2019-03-21T08:59:05.062Z,69.15
2019-03-21T09:00:04.801Z,68.92
2019-03-21T09:01:04.873Z,69.06
2019-03-21T09:02:04.908Z,68.67
2019-03-21T09:03:04.885Z,68.76
2019-03-21T09:04:04.920Z,68.76
2019-03-21T09:05:04.999Z,68.63
2019-03-21T09:06:05.276Z,68.67
2019-03-21T09:07:05.063Z,68.57
2019-03-21T09:08:05.052Z,68.48
2019-03-21T09:09:05.123Z,68.67
2019-03-21T09:10:05.102Z,68.67
2019-03-21T09:11:05.202Z,68.67
2019-03-21T09:12:05.212Z,68.48
2019-03-21T09:13:05.501Z,68.48
2019-03-21T09:14:05.224Z,68.57
2019-03-21T09:15:05.255Z,68.86
2019-03-21T09:16:05.287Z,68.19
2019-03-21T09:17:05.474Z,68.38
2019-03-21T09:18:05.450Z,67.99
2019-03-21T09:19:05.391Z,68.29
2019-03-21T09:20:05.763Z,68.19
2019-03-21T09:21:05.451Z,68.09
2019-03-21T09:22:05.480Z,68.67
2019-03-21T09:23:05.655Z,68.09
2019-03-21T09:24:05.585Z,68.38
2019-03-21T09:25:05.620Z,68.48
2019-03-21T09:26:05.608Z,68.38
2019-03-21T09:27:05.930Z,68.57
2019-03-21T09:28:05.713Z,68.38
2019-03-21T09:29:05.762Z,68.48
2019-03-21T09:30:06.380Z,68.38
2019-03-21T09:31:05.782Z,68.67
2019-03-21T09:32:05.870Z,68.19
2019-03-21T09:34:05.852Z,68.29
2019-03-21T09:35:06.240Z,67.99
2019-03-21T09:36:06.006Z,68.29
2019-03-21T09:37:05.997Z,68.19
2019-03-21T09:38:06.029Z,68.09
2019-03-21T09:39:06.007Z,68.09
2019-03-21T09:40:06.032Z,68.19
2019-03-21T09:41:06.067Z,68.09
2019-03-21T09:42:06.393Z,68.09
2019-03-21T09:44:06.221Z,68.09
2019-03-21T09:45:06.201Z,67.90
2019-03-21T09:46:06.219Z,67.99
2019-03-21T09:47:06.250Z,68.19
2019-03-21T09:48:06.330Z,67.99
2019-03-21T09:49:06.622Z,67.71
2019-03-21T09:50:06.344Z,68.19
2019-03-21T09:51:06.431Z,67.80
2019-03-21T09:52:06.427Z,67.61
2019-03-21T09:53:06.498Z,67.80
2019-03-21T09:54:09.864Z,67.61
2019-03-21T09:55:06.499Z,67.61
2019-03-21T09:56:06.834Z,67.61
2019-03-21T09:57:06.569Z,67.65
2019-03-21T09:58:06.599Z,67.42
2019-03-21T09:59:06.683Z,67.61
2019-03-21T10:00:06.665Z,67.51
2019-03-21T10:01:06.745Z,67.32
2019-03-21T10:02:06.769Z,67.55
2019-03-21T10:03:07.126Z,67.55
2019-03-21T10:04:06.784Z,67.32
2019-03-21T10:05:06.876Z,67.42
2019-03-21T10:06:07.007Z,67.42
2019-03-21T10:07:06.933Z,67.42
2019-03-21T10:08:06.959Z,67.42
2019-03-21T10:09:06.944Z,67.55
2019-03-21T10:10:07.019Z,67.32
2019-03-21T10:11:07.005Z,67.80
2019-03-21T10:12:07.084Z,67.51
2019-03-21T10:13:07.114Z,67.51
2019-03-21T10:14:07.100Z,67.51
2019-03-21T10:15:07.124Z,67.93
2019-03-21T10:16:07.456Z,67.74
2019-03-21T10:17:07.274Z,67.74
2019-03-21T10:18:07.278Z,67.74
2019-03-21T10:19:07.254Z,67.74
2019-03-21T10:20:07.636Z,67.16
2019-03-21T10:21:07.674Z,67.55
2019-03-21T10:22:07.651Z,67.65
2019-03-21T10:23:07.376Z,67.35
2019-03-21T10:24:07.562Z,67.26
2019-03-21T10:25:07.488Z,67.35
2019-03-21T10:26:07.466Z,67.26
2019-03-21T10:27:07.555Z,67.35
2019-03-21T10:28:07.838Z,67.35
2019-03-21T10:29:07.571Z,67.35
2019-03-21T10:30:07.597Z,67.35
2019-03-21T10:31:07.678Z,67.45
2019-03-21T10:32:14.172Z,67.45
2019-03-21T10:33:07.741Z,67.26
2019-03-21T10:34:08.076Z,67.26
2019-03-21T10:36:07.835Z,67.26
2019-03-21T10:37:07.814Z,67.16
2019-03-21T10:38:07.844Z,67.16
2019-03-21T10:39:07.880Z,67.26
2019-03-21T10:40:07.908Z,66.97
2019-03-21T10:41:08.315Z,67.16
2019-03-21T10:42:08.035Z,67.26
2019-03-21T10:43:10.434Z,67.16
2019-03-21T10:44:08.032Z,67.26
2019-03-21T10:45:08.118Z,66.97
2019-03-21T10:46:08.145Z,66.97
2019-03-21T10:47:08.130Z,67.16
2019-03-21T10:48:08.470Z,66.97
2019-03-21T10:49:08.243Z,66.88
2019-03-21T10:50:08.234Z,67.07
2019-03-21T10:51:08.312Z,67.07
2019-03-21T10:52:08.451Z,66.88
2019-03-21T10:53:08.336Z,66.97
2019-03-21T10:54:08.424Z,66.88
2019-03-21T10:55:08.393Z,67.07
2019-03-21T10:56:08.474Z,66.68
2019-03-21T10:57:08.876Z,66.88
2019-03-21T10:58:08.480Z,66.88
2019-03-21T10:59:08.503Z,66.88
2019-03-21T11:00:08.596Z,66.88
2019-03-21T11:01:08.920Z,66.49
2019-03-21T11:02:08.621Z,66.97
2019-03-21T11:03:08.690Z,66.30
2019-03-21T11:04:08.685Z,66.68
2019-03-21T11:05:08.703Z,66.78
2019-03-21T11:06:08.736Z,66.88
2019-03-21T11:07:08.773Z,66.49
2019-03-21T11:08:09.100Z,66.58
2019-03-21T11:09:08.877Z,66.49
2019-03-21T11:10:08.879Z,66.49
2019-03-21T11:11:08.936Z,66.49
2019-03-21T11:12:08.915Z,66.49
2019-03-21T11:13:08.997Z,66.58
2019-03-21T11:14:08.984Z,66.58
2019-03-21T11:15:09.321Z,66.49
2019-03-21T11:16:09.108Z,66.68
2019-03-21T11:17:09.081Z,66.68
2019-03-21T11:18:09.118Z,66.58
2019-03-21T11:19:09.267Z,66.68
2019-03-21T11:20:09.225Z,66.78
2019-03-21T11:21:09.254Z,66.68
2019-03-21T11:22:09.588Z,66.58
2019-03-21T11:23:09.269Z,66.58
2019-03-21T11:24:09.349Z,66.58
2019-03-21T11:25:09.375Z,66.68
2019-03-21T11:26:09.358Z,66.68
2019-03-21T11:27:09.391Z,66.49
2019-03-21T11:28:09.490Z,66.49
2019-03-21T11:29:09.508Z,66.68
2019-03-21T11:30:15.927Z,66.97
2019-03-21T11:31:09.514Z,66.71
2019-03-21T11:32:09.620Z,66.88
2019-03-21T11:33:09.588Z,66.68
2019-03-21T11:34:09.621Z,66.68
2019-03-21T11:35:09.996Z,66.91
2019-03-21T11:36:09.841Z,66.71
2019-03-21T11:37:09.708Z,66.71
2019-03-21T11:38:09.793Z,66.71
2019-03-21T11:39:09.836Z,67.00
2019-03-21T11:40:10.162Z,66.62
2019-03-21T11:41:12.649Z,66.71
2019-03-21T11:42:09.863Z,66.52
2019-03-21T11:43:11.024Z,66.71
2019-03-21T11:44:09.939Z,66.71
2019-03-21T11:45:09.966Z,66.52
2019-03-21T11:46:10.117Z,66.33
2019-03-21T11:47:10.139Z,66.81
2019-03-21T11:48:10.455Z,66.81
2019-03-21T11:49:10.148Z,66.81
2019-03-21T11:50:10.137Z,66.71
2019-03-21T11:51:10.161Z,66.71
2019-03-21T11:52:18.274Z,66.52
2019-03-21T11:53:10.279Z,66.33
2019-03-21T11:54:10.550Z,66.71
2019-03-21T11:55:10.335Z,66.62
2019-03-21T11:56:12.891Z,66.33
2019-03-21T11:57:10.412Z,66.71
2019-03-21T11:58:10.425Z,66.71
2019-03-21T11:59:10.410Z,66.52
2019-03-21T12:00:10.488Z,66.42
2019-03-21T12:01:10.832Z,66.24
2019-03-21T12:02:10.552Z,65.94
2019-03-21T12:03:10.542Z,65.66
2019-03-21T12:04:10.568Z,66.52
2019-03-21T12:05:10.653Z,66.42
2019-03-21T12:06:10.779Z,65.85
2019-03-21T12:07:10.662Z,65.75
2019-03-21T12:08:10.700Z,65.94
2019-03-21T12:09:10.780Z,65.94
2019-03-21T12:10:10.909Z,66.14
2019-03-21T12:11:10.839Z,66.04
2019-03-21T12:12:10.831Z,65.94
2019-03-21T12:13:10.850Z,66.04
2019-03-21T12:14:11.236Z,66.14
2019-03-21T12:15:10.920Z,65.85
2019-03-21T12:16:11.002Z,65.94
2019-03-21T12:17:12.900Z,66.04
2019-03-21T12:18:11.011Z,66.14
2019-03-21T12:19:11.047Z,65.94
2019-03-21T12:20:11.127Z,65.85
2019-03-21T12:21:11.409Z,65.85
2019-03-21T12:22:11.185Z,66.04
2019-03-21T12:23:11.176Z,66.14
2019-03-21T12:24:11.207Z,66.24
2019-03-21T12:25:11.292Z,66.04
2019-03-21T12:26:11.315Z,66.14
2019-03-21T12:27:11.451Z,66.04
2019-03-21T12:28:11.383Z,65.94
2019-03-21T12:29:11.419Z,66.14
2019-03-21T12:30:11.396Z,65.85
2019-03-21T12:31:11.478Z,65.66
2019-03-21T12:32:11.520Z,65.37
2019-03-21T12:33:11.502Z,65.46
2019-03-21T12:34:11.875Z,65.75
2019-03-21T12:35:11.731Z,65.85
2019-03-21T12:36:11.639Z,65.46
2019-03-21T12:37:11.671Z,65.66
2019-03-21T12:38:11.704Z,65.46
2019-03-21T12:39:11.741Z,65.37
2019-03-21T12:40:12.066Z,65.66
2019-03-21T12:41:11.806Z,65.37
2019-03-21T12:42:11.843Z,65.56
2019-03-21T12:43:11.808Z,65.37
2019-03-21T12:44:11.854Z,65.37
2019-03-21T12:45:11.943Z,65.75
2019-03-21T12:46:12.211Z,65.56
2019-03-21T12:47:11.954Z,65.56
2019-03-21T12:48:11.970Z,65.66
2019-03-21T12:49:12.162Z,65.66
2019-03-21T12:50:12.035Z,65.56
2019-03-21T12:51:12.280Z,65.85
2019-03-21T12:52:12.157Z,65.37
2019-03-21T12:53:12.191Z,65.66
2019-03-21T12:55:12.244Z,65.56
2019-03-21T12:56:12.233Z,65.56
2019-03-21T12:57:12.323Z,65.37
2019-03-21T12:58:12.348Z,65.75
2019-03-21T12:59:12.375Z,65.66
2019-03-21T13:00:12.360Z,65.27
2019-03-21T13:01:12.392Z,65.37
2019-03-21T13:02:12.424Z,65.75
2019-03-21T13:03:12.509Z,65.08
2019-03-21T13:04:12.789Z,65.08
2019-03-21T13:05:12.577Z,65.37
2019-03-21T13:06:12.557Z,65.46
2019-03-21T13:07:12.585Z,65.66
2019-03-21T13:08:12.673Z,65.56
2019-03-21T13:10:12.682Z,65.37
2019-03-21T13:11:12.719Z,65.46
2019-03-21T13:12:12.897Z,65.46
2019-03-21T13:13:12.839Z,65.59
2019-03-21T13:14:12.860Z,65.69
2019-03-21T13:15:12.896Z,65.69
2019-03-21T13:16:12.878Z,65.69
2019-03-21T13:17:13.263Z,65.85
2019-03-21T13:18:12.992Z,65.59
2019-03-21T13:19:12.975Z,65.40
2019-03-21T13:20:13.018Z,65.69
2019-03-21T13:21:13.095Z,65.59
2019-03-21T13:22:13.072Z,65.50
2019-03-21T13:23:13.153Z,65.78
2019-03-21T13:24:13.135Z,65.01
2019-03-21T13:25:13.222Z,65.11